Schedule Details

Flight Number: CPX322
Departure: Lehigh Valley International Airport (KABE) at N/A
Arrival: Chicago/Rockford International Airport (KRFD) at N/A
Route: PSB J60 JOT V171 RFD


Current Weather Information
KABE 192251Z 00000KT 10SM CLR 00/M12 A3056 RMK AO2 SLP355 T00001117
KRFD 192254Z 06005KT 10SM FEW160 OVC250 M03/M10 A3048 RMK AO2 SLP336 T10331100